createdAt,value
2022-09-20T06:15:00.539Z,100976.38
2022-09-20T06:17:44.006Z,100980.63
2022-09-20T06:20:31.569Z,100990.78
2022-09-20T06:23:09.395Z,100991.75
2022-09-20T06:25:54.070Z,100983.53
2022-09-20T06:28:36.730Z,100993.00
2022-09-20T06:31:17.399Z,100993.72
2022-09-20T06:33:59.826Z,100992.66
2022-09-20T06:36:51.844Z,101006.44
2022-09-20T06:39:50.777Z,101011.19
2022-09-20T06:42:27.767Z,101001.72
2022-09-20T06:45:04.914Z,101011.28
2022-09-20T06:47:44.207Z,101012.53
2022-09-20T06:50:22.981Z,101013.38
2022-09-20T06:52:59.619Z,101015.09
2022-09-20T06:55:43.546Z,101018.00
2022-09-20T06:58:20.189Z,101016.84
2022-09-20T07:00:57.495Z,101012.03
2022-09-20T07:03:37.541Z,101007.69
2022-09-20T07:06:18.871Z,101014.00
2022-09-20T07:08:55.641Z,101022.13
2022-09-20T07:11:35.334Z,101020.44
2022-09-20T07:14:12.082Z,101034.59
2022-09-20T07:16:49.441Z,101033.66
2022-09-20T07:19:29.053Z,101031.00
2022-09-20T07:22:06.112Z,101025.19
2022-09-20T07:24:45.282Z,101025.78
2022-09-20T07:27:25.493Z,101024.94
2022-09-20T07:30:04.421Z,101013.53
2022-09-20T07:32:41.838Z,101028.75
2022-09-20T07:35:21.307Z,101028.03
2022-09-20T07:38:02.386Z,101020.78
2022-09-20T07:40:39.252Z,101025.34
2022-09-20T07:43:16.873Z,101022.66
2022-09-20T07:45:56.310Z,101024.69
2022-09-20T07:48:36.451Z,101029.00
2022-09-20T07:51:17.191Z,101022.78
2022-09-20T07:53:58.612Z,101041.66
2022-09-20T07:56:35.692Z,101033.38
2022-09-20T07:59:13.530Z,101038.22
2022-09-20T08:01:50.319Z,101034.06
2022-09-20T08:04:27.302Z,101039.41
2022-09-20T08:07:06.730Z,101034.38
2022-09-20T08:09:44.405Z,101042.84
2022-09-20T08:15:21.004Z,101057.22
2022-09-20T08:17:58.364Z,101056.97
2022-09-20T08:20:38.423Z,101051.84
2022-09-20T08:23:23.841Z,101046.50
2022-09-20T08:26:03.101Z,101060.56
2022-09-20T08:28:39.893Z,101063.47
2022-09-20T08:31:20.081Z,101062.69
2022-09-20T08:33:58.352Z,101059.63
2022-09-20T08:36:38.480Z,101056.06
2022-09-20T08:42:33.314Z,101060.03
2022-09-20T08:45:34.280Z,101059.25
2022-09-20T08:48:19.781Z,101064.19
2022-09-20T08:50:56.071Z,101067.03
2022-09-20T08:53:33.712Z,101064.81
2022-09-20T08:56:13.441Z,101071.03
2022-09-20T08:58:51.151Z,101058.50
2022-09-20T09:01:32.720Z,101063.88
2022-09-20T09:04:18.493Z,101070.69
2022-09-20T09:06:56.170Z,101066.16
2022-09-20T09:09:37.685Z,101070.00
2022-09-20T09:12:29.549Z,101074.09
2022-09-20T09:15:24.272Z,101077.47
2022-09-20T09:18:00.929Z,101083.13
2022-09-20T09:20:47.521Z,101087.94
2022-09-20T09:23:36.407Z,101078.09
2022-09-20T09:26:24.239Z,101082.16
2022-09-20T09:29:21.186Z,101086.31
2022-09-20T09:31:58.331Z,101082.19
2022-09-20T09:34:39.060Z,101077.94
2022-09-20T09:37:29.247Z,101076.34
2022-09-20T09:40:20.914Z,101077.72
2022-09-20T09:43:00.622Z,101077.94
2022-09-20T09:45:43.506Z,101083.69
2022-09-20T09:48:27.802Z,101078.53
2022-09-20T09:51:16.156Z,101079.16
2022-09-20T09:53:55.530Z,101092.97
2022-09-20T09:56:57.596Z,101099.19
2022-09-20T10:00:06.419Z,101117.81
2022-09-20T10:03:33.440Z,101115.28
2022-09-20T10:06:24.841Z,101119.53
2022-09-20T10:09:29.921Z,101119.84
2022-09-20T10:12:34.622Z,101132.97
2022-09-20T10:15:27.233Z,101127.31
2022-09-20T10:18:43.002Z,101134.94
2022-09-20T10:21:41.694Z,101131.97
2022-09-20T10:24:42.322Z,101141.72
2022-09-20T10:27:40.285Z,101139.28
2022-09-20T10:30:23.243Z,101133.91
2022-09-20T10:33:13.201Z,101144.66
2022-09-20T10:36:10.391Z,101157.91
2022-09-20T10:38:57.930Z,101151.25
2022-09-20T10:42:03.035Z,101163.94
2022-09-20T10:44:58.956Z,101159.53
2022-09-20T10:47:40.901Z,101160.84
2022-09-20T10:50:31.459Z,101165.22
2022-09-20T10:53:29.090Z,101160.56
2022-09-20T10:56:24.503Z,101153.81
2022-09-20T10:59:36.191Z,101167.63
2022-09-20T11:02:49.336Z,101169.91
2022-09-20T11:05:56.739Z,101167.72
2022-09-20T11:08:39.840Z,101178.19
2022-09-20T11:11:25.289Z,101175.69
2022-09-20T11:14:09.331Z,101170.88
2022-09-20T11:16:54.364Z,101169.63
2022-09-20T11:19:36.031Z,101172.31
2022-09-20T11:22:19.211Z,101184.16
2022-09-20T11:25:06.649Z,101182.31
2022-09-20T11:27:48.185Z,101185.13
2022-09-20T11:30:28.737Z,101188.06
2022-09-20T11:33:16.817Z,101194.00
2022-09-20T11:35:58.838Z,101194.16
2022-09-20T11:38:44.358Z,101204.72
2022-09-20T11:41:29.364Z,101210.94
2022-09-20T11:44:14.326Z,101208.66
2022-09-20T11:47:00.239Z,101198.50
2022-09-20T11:49:52.243Z,101199.63
2022-09-20T11:52:49.481Z,101212.03
2022-09-20T11:55:42.833Z,101216.22
2022-09-20T11:58:23.750Z,101218.16
2022-09-20T12:01:03.373Z,101230.13
2022-09-20T12:03:43.356Z,101241.88
2022-09-20T12:06:35.274Z,101234.22
2022-09-20T12:09:29.013Z,101231.91
2022-09-20T12:12:30.955Z,101238.38
2022-09-20T12:15:26.465Z,101244.22
2022-09-20T12:18:37.753Z,101254.41
2022-09-20T12:21:21.620Z,101244.41
2022-09-20T12:24:27.015Z,101251.81
2022-09-20T12:27:10.142Z,101250.34
2022-09-20T12:30:20.652Z,101246.59
2022-09-20T12:33:04.945Z,101252.94
2022-09-20T12:36:21.666Z,101254.50
2022-09-20T12:39:11.512Z,101264.59
2022-09-20T12:41:53.793Z,101255.88
2022-09-20T12:44:39.020Z,101252.22
2022-09-20T12:47:26.831Z,101256.72
2022-09-20T12:50:17.970Z,101256.38
2022-09-20T12:53:02.061Z,101265.13
2022-09-20T12:55:57.082Z,101257.81
2022-09-20T12:58:45.732Z,101255.53
2022-09-20T13:01:41.442Z,101249.28
2022-09-20T13:04:59.928Z,101256.34
2022-09-20T13:07:49.751Z,101253.97
2022-09-20T13:10:35.683Z,101245.59
2022-09-20T13:13:43.733Z,101249.56
2022-09-20T13:16:26.597Z,101252.44
2022-09-20T13:19:08.389Z,101255.81
2022-09-20T13:21:58.771Z,101256.09
2022-09-20T13:24:47.054Z,101259.03
2022-09-20T13:27:30.363Z,101262.47
2022-09-20T13:30:21.603Z,101262.72
2022-09-20T13:32:59.943Z,101268.22
2022-09-20T13:35:39.975Z,101263.25
2022-09-20T13:38:26.063Z,101264.53
2022-09-20T13:41:15.029Z,101261.09
2022-09-20T13:43:55.904Z,101265.53
2022-09-20T13:46:36.176Z,101272.81
2022-09-20T13:49:23.993Z,101266.44
2022-09-20T13:52:03.408Z,101265.91
2022-09-20T13:54:49.691Z,101262.81
2022-09-20T13:57:32.938Z,101255.78
2022-09-20T14:00:17.109Z,101264.81
2022-09-20T14:02:55.237Z,101277.09
2022-09-20T14:05:35.633Z,101268.25
2022-09-20T14:08:21.614Z,101282.16
2022-09-20T14:11:16.588Z,101275.66
2022-09-20T14:13:56.092Z,101282.72
2022-09-20T14:16:38.577Z,101296.34
2022-09-20T14:19:19.499Z,101287.66
2022-09-20T14:21:58.338Z,101295.56
2022-09-20T14:24:36.907Z,101296.72
2022-09-20T14:27:23.506Z,101292.78
2022-09-20T14:30:01.432Z,101292.94
2022-09-20T14:32:55.768Z,101295.00
2022-09-20T14:35:39.435Z,101306.41
2022-09-20T14:38:26.843Z,101309.06
2022-09-20T14:41:03.569Z,101310.69
2022-09-20T14:43:44.479Z,101320.75
2022-09-20T14:46:22.550Z,101322.69
2022-09-20T14:49:24.120Z,101326.31
2022-09-20T14:52:47.881Z,101323.94
2022-09-20T14:55:33.767Z,101331.44
2022-09-20T14:58:17.050Z,101332.19
2022-09-20T15:01:02.076Z,101328.09
2022-09-20T15:03:44.117Z,101335.94
2022-09-20T15:06:25.859Z,101335.00
2022-09-20T15:09:04.178Z,101333.84
2022-09-20T15:11:41.332Z,101338.22
2022-09-20T15:14:20.072Z,101351.88
2022-09-20T15:17:01.726Z,101353.22
2022-09-20T15:19:38.669Z,101360.13
2022-09-20T15:22:15.870Z,101362.31
2022-09-20T15:24:52.685Z,101371.09
2022-09-20T15:27:29.906Z,101365.97
2022-09-20T15:30:08.946Z,101378.38
2022-09-20T15:32:49.238Z,101376.19
2022-09-20T15:35:25.930Z,101379.09
2022-09-20T15:38:02.899Z,101380.41
2022-09-20T15:40:39.930Z,101373.00
2022-09-20T15:43:21.989Z,101376.88
2022-09-20T15:46:01.250Z,101387.56
2022-09-20T15:48:42.126Z,101377.88
2022-09-20T15:51:21.042Z,101384.63
2022-09-20T15:54:06.700Z,101375.88
2022-09-20T15:56:43.717Z,101390.44
2022-09-20T15:59:23.457Z,101390.44
2022-09-20T16:02:00.203Z,101385.25
2022-09-20T16:04:40.289Z,101396.00
2022-09-20T16:07:19.288Z,101391.88
2022-09-20T16:09:57.231Z,101399.88
2022-09-20T16:12:35.138Z,101400.59
2022-09-20T16:15:14.447Z,101395.63
